Time;durP1;ratioP1;P1;durP2;ratioP2;P2;SDS_P1;SDS_P2;PMS_P1;PMS_P2;Temp;Humidity;BMP_temperature;BMP_pressure;BME280_temperature;BME280_humidity;BME280_pressure;Samples;Min_cycle;Max_cycle;Signal;HPM_P1;HPM_P2
2021/10/30 00:00:59;;;;;;;0.40;0.30;;;;;;;8.94;100.00;97794.31;5033693;28;20461;-52
2021/10/30 00:04:02;;;;;;;1.17;0.43;;;;;;;8.99;100.00;97784.44;5033585;28;20052;-52
2021/10/30 00:07:06;;;;;;;0.30;0.20;;;;;;;9.10;100.00;97784.38;5033662;28;20563;-52
2021/10/30 00:10:13;;;;;;;0.30;0.30;;;;;;;9.03;100.00;97769.03;5013409;28;20052;-52
2021/10/30 00:13:16;;;;;;;1.90;0.90;;;;;;;8.89;100.00;97767.38;5013383;28;20461;-52
2021/10/30 00:16:19;;;;;;;0.17;0.17;;;;;;;8.88;100.00;97767.88;5013456;28;20045;-52
2021/10/30 00:19:22;;;;;;;0.20;0.20;;;;;;;8.85;100.00;97775.22;5013419;28;20060;-52
2021/10/30 00:22:28;;;;;;;0.73;0.22;;;;;;;8.84;100.00;97773.69;5025944;28;20051;-52
2021/10/30 00:25:32;;;;;;;0.10;0.10;;;;;;;8.83;100.00;97766.66;5033512;28;20060;-52
2021/10/30 00:28:34;;;;;;;1.40;1.10;;;;;;;8.81;100.00;97769.19;5033110;28;20512;-52
2021/10/30 00:31:37;;;;;;;0.40;0.22;;;;;;;8.85;100.00;97763.34;5033006;28;20052;-53
2021/10/30 00:34:40;;;;;;;4.80;0.73;;;;;;;8.92;100.00;97773.91;5028531;28;20560;-53
2021/10/30 00:37:44;;;;;;;0.57;0.45;;;;;;;8.93;100.00;97759.50;5025664;28;20122;-53
2021/10/30 00:40:47;;;;;;;0.30;0.30;;;;;;;8.93;100.00;97761.53;5033174;28;20052;-53
2021/10/30 00:43:50;;;;;;;0.28;0.28;;;;;;;8.93;100.00;97747.66;5033226;28;20088;-53
2021/10/30 00:46:54;;;;;;;0.25;0.20;;;;;;;8.97;100.00;97753.66;5032733;28;20052;-53
2021/10/30 00:49:56;;;;;;;0.95;0.20;;;;;;;8.98;100.00;97744.84;5032853;28;20444;-53
2021/10/30 00:53:00;;;;;;;12.38;0.90;;;;;;;9.01;100.00;97743.81;5032366;28;20385;-53
2021/10/30 00:56:05;;;;;;;0.17;0.17;;;;;;;8.99;100.00;97734.47;5032932;28;20600;-53
2021/10/30 00:59:13;;;;;;;4.47;0.73;;;;;;;8.94;100.00;97726.97;5015798;28;20125;-53
2021/10/30 01:02:16;;;;;;;0.38;0.38;;;;;;;8.89;100.00;97736.84;5013028;28;20048;-53
2021/10/30 01:05:19;;;;;;;0.20;0.20;;;;;;;8.96;100.00;97736.28;5023066;28;20128;-53
2021/10/30 01:08:22;;;;;;;1.48;0.55;;;;;;;9.05;100.00;97724.09;5032637;28;20559;-53
2021/10/30 01:11:25;;;;;;;0.10;0.10;;;;;;;9.19;100.00;97720.19;5012811;28;20045;-53
2021/10/30 01:14:31;;;;;;;0.10;0.10;;;;;;;9.21;100.00;97712.09;5028654;28;20472;-53
2021/10/30 01:17:34;;;;;;;3.45;0.43;;;;;;;9.25;100.00;97704.22;5032148;28;20049;-53
2021/10/30 01:20:37;;;;;;;1.17;0.52;;;;;;;9.27;100.00;97703.72;5032741;28;20056;-53
2021/10/30 01:23:40;;;;;;;0.22;0.20;;;;;;;9.29;100.00;97712.28;5031593;28;20048;-53
2021/10/30 01:26:43;;;;;;;0.55;0.40;;;;;;;9.32;100.00;97708.47;5032769;28;20471;-53
2021/10/30 01:29:50;;;;;;;0.10;0.10;;;;;;;9.25;100.00;97706.28;5032520;28;20107;-53
2021/10/30 01:32:56;;;;;;;0.30;0.30;;;;;;;9.28;100.00;97700.41;5019423;28;20123;-53
2021/10/30 01:36:09;;;;;;;6.75;0.63;;;;;;;9.27;100.00;97681.50;5012656;28;20045;-52
2021/10/30 01:39:13;;;;;;;0.40;0.30;;;;;;;9.28;100.00;97671.88;5012956;28;20052;-53
2021/10/30 01:42:16;;;;;;;4.20;0.40;;;;;;;9.30;100.00;97672.13;5012694;28;20521;-52
2021/10/30 01:45:19;;;;;;;5.93;0.57;;;;;;;9.34;100.00;97670.56;5012640;28;20117;-53
2021/10/30 01:48:32;;;;;;;0.20;0.20;;;;;;;9.33;100.00;97668.31;5012578;28;20157;-53
2021/10/30 01:51:35;;;;;;;0.10;0.10;;;;;;;9.34;100.00;97651.13;5012630;28;20517;-53
2021/10/30 01:54:38;;;;;;;3.42;0.98;;;;;;;9.35;100.00;97657.44;5012692;28;20520;-53
2021/10/30 01:57:40;;;;;;;0.22;0.22;;;;;;;9.29;100.00;97651.19;5020868;28;20436;-53
2021/10/30 02:00:45;;;;;;;0.95;0.75;;;;;;;9.34;100.00;97647.59;5032065;28;20083;-53
2021/10/30 02:03:48;;;;;;;0.57;0.32;;;;;;;9.38;100.00;97653.59;5031474;28;20099;-53
2021/10/30 02:06:51;;;;;;;2.05;0.28;;;;;;;9.37;100.00;97652.09;5032902;28;20052;-53
2021/10/30 02:09:54;;;;;;;0.20;0.20;;;;;;;9.39;100.00;97650.31;5035794;28;20087;-53
2021/10/30 02:12:57;;;;;;;0.55;0.43;;;;;;;9.43;100.00;97650.78;5036079;28;20043;-52
2021/10/30 02:16:01;;;;;;;4.18;0.70;;;;;;;9.48;100.00;97640.88;5019819;28;20108;-53
2021/10/30 02:19:04;;;;;;;0.13;0.13;;;;;;;9.49;100.00;97642.38;5015875;28;20509;-53
2021/10/30 02:22:07;;;;;;;0.20;0.20;;;;;;;9.54;100.00;97644.34;5015859;28;20148;-52
2021/10/30 02:25:10;;;;;;;1.65;0.47;;;;;;;9.55;100.00;97634.75;5015968;28;20048;-53
2021/10/30 02:28:13;;;;;;;0.30;0.25;;;;;;;9.57;100.00;97621.81;5015729;28;20061;-53
2021/10/30 02:31:16;;;;;;;0.10;0.10;;;;;;;9.60;100.00;97614.47;5015709;28;20045;-53
2021/10/30 02:34:19;;;;;;;0.30;0.22;;;;;;;9.66;100.00;97604.03;5015326;28;20437;-53
2021/10/30 02:37:22;;;;;;;0.20;0.20;;;;;;;9.63;100.00;97597.50;5033974;28;20130;-52
2021/10/30 02:40:25;;;;;;;0.55;0.55;;;;;;;9.65;100.00;97594.19;5035221;28;20084;-52
2021/10/30 02:43:28;;;;;;;0.30;0.30;;;;;;;9.65;100.00;97583.09;5034914;28;20100;-52
2021/10/30 02:46:31;;;;;;;0.32;0.20;;;;;;;9.68;100.00;97568.16;5034818;28;20107;-53
2021/10/30 02:49:34;;;;;;;1.85;0.63;;;;;;;9.70;100.00;97562.81;5035044;28;20087;-52
2021/10/30 02:52:37;;;;;;;7.15;0.55;;;;;;;9.77;100.00;97556.63;5035066;28;20103;-52
2021/10/30 02:55:40;;;;;;;1.02;0.40;;;;;;;9.81;100.00;97562.69;5035079;28;20500;-52
2021/10/30 02:58:43;;;;;;;1.55;0.50;;;;;;;9.83;100.00;97566.41;5028891;28;20077;-52
2021/10/30 03:01:46;;;;;;;0.73;0.73;;;;;;;9.82;100.00;97558.59;5028336;28;20043;-52
2021/10/30 03:04:49;;;;;;;2.63;0.52;;;;;;;9.83;100.00;97546.94;5034665;28;20102;-52
2021/10/30 03:07:52;;;;;;;0.50;0.43;;;;;;;9.85;100.00;97536.06;5034803;28;20425;-52
2021/10/30 03:10:56;;;;;;;0.20;0.20;;;;;;;9.79;100.00;97534.63;5034706;28;20133;-52
2021/10/30 03:13:58;;;;;;;0.80;0.80;;;;;;;9.74;100.00;97527.13;5034963;28;20109;-52
2021/10/30 03:17:01;;;;;;;7.32;0.65;;;;;;;9.70;100.00;97527.41;5034324;28;20047;-52
2021/10/30 03:20:05;;;;;;;0.43;0.43;;;;;;;9.70;100.00;97507.25;5053055;28;20153;-52
2021/10/30 03:23:08;;;;;;;0.20;0.15;;;;;;;9.68;100.00;97510.53;5054198;28;20076;-52
2021/10/30 03:26:12;;;;;;;6.03;1.23;;;;;;;9.72;100.00;97504.69;5054890;28;20448;-52
2021/10/30 03:29:15;;;;;;;1.60;0.40;;;;;;;9.70;100.00;97498.91;5054221;28;20163;-52
2021/10/30 03:32:18;;;;;;;2.28;0.85;;;;;;;9.70;100.00;97496.13;5031175;28;20088;-52
2021/10/30 03:35:21;;;;;;;1.15;0.80;;;;;;;9.72;100.00;97493.56;5014194;28;20092;-52
2021/10/30 03:38:24;;;;;;;6.65;0.50;;;;;;;9.77;100.00;97484.38;5014378;28;20398;-52
2021/10/30 03:41:27;;;;;;;9.02;1.40;;;;;;;9.73;100.00;97475.59;5014110;28;20442;-52
2021/10/30 03:44:30;;;;;;;12.40;0.30;;;;;;;9.78;100.00;97483.88;5013762;28;20394;-52
2021/10/30 03:47:34;;;;;;;0.10;0.10;;;;;;;9.86;100.00;97486.78;5013916;28;20080;-52
2021/10/30 03:50:38;;;;;;;5.28;0.35;;;;;;;9.89;100.00;97475.38;5014351;28;20367;-52
2021/10/30 03:53:41;;;;;;;7.22;1.10;;;;;;;9.93;100.00;97480.59;5013887;28;20401;-52
2021/10/30 03:56:44;;;;;;;0.10;0.10;;;;;;;9.96;100.00;97473.25;5013822;28;20422;-53
2021/10/30 03:59:47;;;;;;;2.22;0.20;;;;;;;9.99;100.00;97477.72;5013558;28;20083;-53
2021/10/30 04:02:50;;;;;;;0.98;0.50;;;;;;;10.02;100.00;97465.56;5013644;28;20099;-53
2021/10/30 04:05:53;;;;;;;5.72;0.90;;;;;;;10.03;100.00;97462.25;5014038;28;20122;-52
2021/10/30 04:08:56;;;;;;;4.85;0.15;;;;;;;10.03;100.00;97455.94;5028271;28;20447;-53
2021/10/30 04:11:59;;;;;;;0.35;0.30;;;;;;;10.06;100.00;97472.31;5032885;28;20424;-53
2021/10/30 04:15:03;;;;;;;3.47;0.65;;;;;;;10.06;100.00;97450.06;5031786;28;20048;-53
2021/10/30 04:18:06;;;;;;;0.13;0.13;;;;;;;10.04;100.00;97460.97;5031606;28;20063;-54
2021/10/30 04:21:10;;;;;;;0.10;0.10;;;;;;;10.07;100.00;97434.16;5031688;28;20035;-54
2021/10/30 04:24:13;;;;;;;0.20;0.20;;;;;;;10.05;100.00;97459.69;5033310;28;20052;-54
2021/10/30 04:27:16;;;;;;;0.40;0.32;;;;;;;10.10;100.00;97442.16;5033354;28;20048;-54
2021/10/30 04:30:19;;;;;;;7.10;0.50;;;;;;;10.13;100.00;97443.16;5019748;28;20076;-55
2021/10/30 04:33:22;;;;;;;0.55;0.28;;;;;;;10.13;100.00;97432.81;5013487;28;20464;-55
2021/10/30 04:36:27;;;;;;;0.30;0.30;;;;;;;10.10;100.00;97433.06;5012854;28;20141;-55
2021/10/30 04:39:30;;;;;;;2.45;0.68;;;;;;;10.12;100.00;97414.59;5013418;28;20048;-54
2021/10/30 04:42:33;;;;;;;0.55;0.38;;;;;;;10.16;100.00;97426.16;5013290;28;20041;-54
2021/10/30 04:45:41;;;;;;;0.52;0.30;;;;;;;10.15;100.00;97413.56;5021719;28;20437;-54
2021/10/30 04:48:44;;;;;;;0.28;0.28;;;;;;;10.10;100.00;97411.56;5013475;28;20080;-54
2021/10/30 04:51:47;;;;;;;1.27;0.55;;;;;;;10.13;100.00;97416.13;5013268;28;20052;-55
2021/10/30 04:54:50;;;;;;;0.30;0.30;;;;;;;10.13;100.00;97405.00;5013360;28;20046;-55
2021/10/30 04:57:53;;;;;;;0.20;0.20;;;;;;;10.13;100.00;97405.00;5012747;28;20529;-56
2021/10/30 05:00:56;;;;;;;4.28;0.70;;;;;;;10.16;100.00;97401.13;5013022;28;20398;-55
2021/10/30 05:03:59;;;;;;;0.20;0.20;;;;;;;10.15;100.00;97394.09;5012908;28;20041;-56
2021/10/30 05:07:02;;;;;;;1.63;0.60;;;;;;;10.15;100.00;97388.53;5012952;28;20072;-56
2021/10/30 05:10:06;;;;;;;2.30;0.90;;;;;;;10.17;100.00;97388.72;5014074;28;20045;-56
2021/10/30 05:13:09;;;;;;;0.45;0.40;;;;;;;10.19;100.00;97396.53;5013056;28;20060;-56
2021/10/30 05:16:12;;;;;;;0.38;0.38;;;;;;;10.20;100.00;97382.09;5031363;28;20127;-56
2021/10/30 05:19:15;;;;;;;0.25;0.25;;;;;;;10.23;100.00;97386.59;5032377;28;20064;-56
2021/10/30 05:22:18;;;;;;;0.68;0.10;;;;;;;10.27;100.00;97373.13;5032430;28;20072;-57
2021/10/30 05:25:22;;;;;;;0.30;0.10;;;;;;;10.33;100.00;97378.59;5032085;28;20039;-56
2021/10/30 05:28:25;;;;;;;0.50;0.50;;;;;;;10.33;100.00;97368.19;5032285;28;20075;-56
2021/10/30 05:31:28;;;;;;;0.57;0.30;;;;;;;10.28;100.00;97359.97;5013268;28;20092;-56
2021/10/30 05:34:31;;;;;;;13.45;0.70;;;;;;;10.26;100.00;97354.94;5012493;28;20044;-56
2021/10/30 05:37:34;;;;;;;0.88;0.45;;;;;;;10.19;100.00;97352.78;5012750;28;20048;-57
2021/10/30 05:40:37;;;;;;;0.10;0.10;;;;;;;10.16;100.00;97353.09;5015761;28;20100;-56
2021/10/30 05:43:41;;;;;;;0.22;0.10;;;;;;;10.14;100.00;97334.16;5016669;28;20083;-56
2021/10/30 05:46:44;;;;;;;4.75;0.47;;;;;;;10.12;100.00;97353.41;5016526;28;20529;-56
2021/10/30 05:49:47;;;;;;;1.40;1.13;;;;;;;10.11;100.00;97346.38;5011770;28;20115;-56
2021/10/30 05:52:49;;;;;;;1.67;0.32;;;;;;;10.15;100.00;97346.03;5016573;28;20068;-56
2021/10/30 05:55:53;;;;;;;11.50;0.85;;;;;;;10.14;100.00;97352.88;5028330;28;20092;-56
2021/10/30 05:58:56;;;;;;;0.20;0.20;;;;;;;10.15;100.00;97344.03;5036053;28;20043;-56
2021/10/30 06:01:59;;;;;;;0.55;0.43;;;;;;;10.13;100.00;97341.03;5036003;28;20596;-56
2021/10/30 06:05:02;;;;;;;0.60;0.20;;;;;;;10.13;100.00;97346.59;5036165;28;20402;-56
2021/10/30 06:08:05;;;;;;;1.33;0.47;;;;;;;10.10;100.00;97339.28;5035849;28;20386;-57
2021/10/30 06:11:08;;;;;;;0.15;0.15;;;;;;;10.13;100.00;97338.25;5033803;28;20072;-57
2021/10/30 06:14:11;;;;;;;0.30;0.30;;;;;;;10.12;100.00;97336.72;5035091;28;20068;-57
2021/10/30 06:17:14;;;;;;;3.35;0.20;;;;;;;10.10;100.00;97332.97;5035585;28;20040;-57
2021/10/30 06:20:17;;;;;;;0.35;0.35;;;;;;;10.12;100.00;97341.53;5034847;28;20056;-56
2021/10/30 06:23:20;;;;;;;5.57;0.50;;;;;;;10.09;100.00;97334.97;5035224;28;20048;-57
2021/10/30 06:26:23;;;;;;;0.20;0.13;;;;;;;10.15;100.00;97341.25;5035657;28;20520;-56
2021/10/30 06:29:28;;;;;;;2.10;0.20;;;;;;;10.19;100.00;97341.66;5035303;28;20048;-57
2021/10/30 06:32:31;;;;;;;3.33;0.32;;;;;;;10.26;100.00;97337.50;5021976;28;20057;-57
2021/10/30 06:35:35;;;;;;;8.70;0.60;;;;;;;10.26;100.00;97323.59;5020925;28;20080;-57
2021/10/30 06:38:38;;;;;;;4.53;0.50;;;;;;;10.30;100.00;97335.91;5034784;28;20041;-58
2021/10/30 06:41:41;;;;;;;5.38;0.52;;;;;;;10.32;100.00;97332.56;5035328;28;20053;-57
2021/10/30 06:44:45;;;;;;;0.20;0.10;;;;;;;10.31;100.00;97322.75;5035047;28;20088;-57
2021/10/30 06:47:48;;;;;;;0.45;0.45;;;;;;;10.31;100.00;97331.81;5034945;28;20580;-57
2021/10/30 06:50:53;;;;;;;1.60;0.38;;;;;;;10.30;100.00;97332.38;5034651;28;20052;-58
2021/10/30 06:53:56;;;;;;;1.80;0.68;;;;;;;10.30;100.00;97352.59;5035197;28;20043;-57
2021/10/30 06:56:59;;;;;;;6.72;1.58;;;;;;;10.30;100.00;97346.28;5035010;28;20044;-58
2021/10/30 07:00:06;;;;;;;11.95;2.05;;;;;;;10.32;100.00;97355.59;5035176;28;20512;-57
2021/10/30 07:03:09;;;;;;;13.23;2.13;;;;;;;10.26;100.00;97346.59;5015172;28;20048;-57
2021/10/30 07:06:12;;;;;;;17.92;3.50;;;;;;;10.21;100.00;97350.22;4997626;28;20057;-57
2021/10/30 07:09:15;;;;;;;11.20;3.35;;;;;;;10.15;100.00;97343.25;5002971;28;20126;-58
2021/10/30 07:12:18;;;;;;;3.90;1.45;;;;;;;10.11;100.00;97342.84;5007976;28;20028;-57
2021/10/30 07:15:21;;;;;;;4.68;1.80;;;;;;;10.06;100.00;97338.84;5009896;28;20072;-57
2021/10/30 07:18:24;;;;;;;1.85;1.08;;;;;;;10.03;100.00;97334.34;5012870;28;20052;-58
2021/10/30 07:21:28;;;;;;;2.63;1.73;;;;;;;9.92;100.00;97334.53;5030923;28;20124;-58
2021/10/30 07:24:31;;;;;;;0.75;0.75;;;;;;;9.92;100.00;97340.09;5050944;28;20056;-58
2021/10/30 07:27:34;;;;;;;0.73;0.40;;;;;;;9.91;100.00;97341.38;5054116;28;20055;-57
2021/10/30 07:30:37;;;;;;;2.92;1.75;;;;;;;9.88;100.00;97337.63;5052641;28;20152;-58
2021/10/30 07:33:40;;;;;;;5.20;1.50;;;;;;;9.85;100.00;97335.19;5053106;28;20091;-58
2021/10/30 07:36:42;;;;;;;5.80;2.05;;;;;;;9.81;100.00;97340.31;5052988;28;20043;-58
2021/10/30 07:39:45;;;;;;;4.85;0.52;;;;;;;9.78;100.00;97336.56;5042638;28;20036;-57
2021/10/30 07:42:48;;;;;;;1.80;0.85;;;;;;;9.79;100.00;97349.16;5032565;28;20048;-57
2021/10/30 07:45:51;;;;;;;2.67;1.02;;;;;;;9.77;100.00;97346.16;5032689;28;20099;-57
2021/10/30 07:48:54;;;;;;;5.90;2.10;;;;;;;9.78;100.00;97349.69;5032742;28;20481;-57
2021/10/30 07:51:57;;;;;;;1.45;0.73;;;;;;;9.74;100.00;97333.34;5033056;28;20052;-57
2021/10/30 07:55:00;;;;;;;3.47;1.05;;;;;;;9.72;100.00;97349.03;5032597;28;20080;-57
2021/10/30 07:58:03;;;;;;;0.50;0.50;;;;;;;9.64;100.00;97348.91;5032938;28;20091;-57
2021/10/30 08:01:07;;;;;;;2.53;1.27;;;;;;;9.73;100.00;97356.09;5033523;28;20045;-57
2021/10/30 08:04:10;;;;;;;2.90;0.95;;;;;;;9.72;100.00;97357.38;5032943;28;20064;-57
2021/10/30 08:07:13;;;;;;;0.43;0.38;;;;;;;9.73;100.00;97354.06;5033870;28;20091;-57
2021/10/30 08:10:17;;;;;;;0.82;0.63;;;;;;;9.72;100.00;97357.38;5013724;28;20040;-57
2021/10/30 08:13:20;;;;;;;0.82;0.22;;;;;;;9.74;100.00;97358.34;5013909;28;20067;-57
2021/10/30 08:16:22;;;;;;;0.10;0.10;;;;;;;9.77;100.00;97362.09;5013742;28;20069;-57
2021/10/30 08:19:25;;;;;;;0.43;0.43;;;;;;;9.83;100.00;97365.53;5013557;28;20092;-57
2021/10/30 08:22:28;;;;;;;0.10;0.10;;;;;;;9.81;100.00;97360.50;5013238;28;20053;-57
2021/10/30 08:25:32;;;;;;;0.10;0.10;;;;;;;9.79;100.00;97345.63;5013249;28;20049;-57
2021/10/30 08:28:35;;;;;;;0.10;0.10;;;;;;;9.72;100.00;97362.94;5014010;28;20045;-57
2021/10/30 08:31:37;;;;;;;0.80;0.45;;;;;;;9.71;100.00;97358.66;5013886;28;20131;-57
2021/10/30 08:34:40;;;;;;;0.10;0.10;;;;;;;9.74;100.00;97358.34;5013392;28;20044;-57
2021/10/30 08:37:43;;;;;;;0.77;0.77;;;;;;;9.74;100.00;97360.38;5013321;28;20131;-56
2021/10/30 08:40:46;;;;;;;8.25;0.30;;;;;;;9.75;100.00;97375.75;5039469;28;20071;-56
2021/10/30 08:43:50;;;;;;;0.40;0.40;;;;;;;9.76;100.00;97382.84;5032783;28;20504;-56
2021/10/30 08:46:53;;;;;;;1.05;0.77;;;;;;;9.75;100.00;97386.88;5032962;28;20087;-57
2021/10/30 08:49:56;;;;;;;0.85;0.30;;;;;;;9.73;100.00;97383.88;5033132;28;20508;-56
2021/10/30 08:53:00;;;;;;;0.45;0.30;;;;;;;9.71;100.00;97378.09;5032861;28;20063;-56
2021/10/30 08:56:04;;;;;;;0.55;0.47;;;;;;;9.68;100.00;97368.06;5033120;28;20405;-57
2021/10/30 08:59:08;;;;;;;0.50;0.50;;;;;;;9.66;100.00;97370.59;5032551;28;20076;-56
2021/10/30 09:02:33;;;;;;;0.13;0.13;;;;;;;9.67;100.00;97358.22;5032795;28;20056;-56
2021/10/30 09:05:38;;;;;;;0.30;0.13;;;;;;;9.75;100.00;97365.41;5032716;28;20114;-56
2021/10/30 09:08:41;;;;;;;0.95;0.32;;;;;;;9.76;100.00;97357.81;5032623;28;20532;-56
2021/10/30 09:11:58;;;;;;;0.10;0.10;;;;;;;9.75;100.00;97353.53;5032256;28;20048;-56
2021/10/30 09:15:01;;;;;;;0.85;0.50;;;;;;;9.76;100.00;97352.25;5032911;28;20044;-56
2021/10/30 09:18:23;;;;;;;0.15;0.15;;;;;;;9.81;100.00;97352.16;5034234;28;20377;-56
2021/10/30 09:21:32;;;;;;;;;;;;;;;9.91;100.00;97366.41;5052251;28;20175;-56
2021/10/30 09:24:53;;;;;;;5.40;0.70;;;;;;;10.02;100.00;97371.78;5039567;28;20015;-56
2021/10/30 09:28:00;;;;;;;;;;;;;;;10.10;100.00;97364.31;5052640;28;20040;-56
2021/10/30 09:31:06;;;;;;;4.10;0.80;;;;;;;10.18;100.00;97362.41;5052489;28;19967;-56
2021/10/30 09:34:09;;;;;;;0.65;0.40;;;;;;;10.28;100.00;97371.84;5052276;28;20091;-56
2021/10/30 09:37:18;;;;;;;0.60;0.40;;;;;;;10.38;100.00;97364.56;5052446;28;20389;-56
2021/10/30 09:40:24;;;;;;;1.10;0.63;;;;;;;10.37;100.00;97374.19;5051896;28;20094;-56
2021/10/30 09:43:30;;;;;;;0.40;0.30;;;;;;;10.34;100.00;97386.41;5052181;28;20488;-56
2021/10/30 09:46:40;;;;;;;1.60;0.20;;;;;;;10.31;100.00;97376.31;5051952;28;20098;-56
2021/10/30 09:49:43;;;;;;;1.42;0.10;;;;;;;10.35;100.00;97390.66;5052293;28;20132;-56
2021/10/30 09:52:46;;;;;;;3.08;0.20;;;;;;;10.44;100.00;97401.38;5039628;28;20039;-56
2021/10/30 09:56:08;;;;;;;0.15;0.10;;;;;;;10.37;100.00;97401.28;5052139;28;20098;-56
2021/10/30 09:59:18;;;;;;;2.30;0.35;;;;;;;10.28;100.00;97398.91;5051741;28;20512;-56
2021/10/30 10:02:22;;;;;;;0.10;0.10;;;;;;;10.22;100.00;97409.38;5052084;28;20044;-56
2021/10/30 10:05:27;;;;;;;0.10;0.10;;;;;;;10.21;100.00;97416.22;5051512;28;20080;-56
2021/10/30 10:08:31;;;;;;;0.15;0.15;;;;;;;10.22;100.00;97424.03;5045211;28;20052;-56
2021/10/30 10:11:35;;;;;;;0.90;0.40;;;;;;;10.28;100.00;97421.16;5019051;28;20433;-56
2021/10/30 10:14:40;;;;;;;0.35;0.20;;;;;;;10.55;100.00;97437.34;5032003;28;20496;-56
2021/10/30 10:17:43;;;;;;;0.10;0.10;;;;;;;10.78;100.00;97434.91;5031817;28;20090;-56
2021/10/30 10:20:47;;;;;;;0.22;0.22;;;;;;;10.85;100.00;97442.59;5012195;28;20133;-56
2021/10/30 10:23:51;;;;;;;0.15;0.15;;;;;;;10.84;100.00;97437.56;5011780;28;20041;-56
2021/10/30 10:27:02;;;;;;;0.45;0.10;;;;;;;10.65;100.00;97441.19;5002335;28;20141;-56
2021/10/30 10:30:05;;;;;;;;;;;;;;;10.55;100.00;97454.03;5015561;28;20064;-56
2021/10/30 10:33:17;;;;;;;11.57;1.17;;;;;;;10.48;100.00;97448.38;5016041;28;20273;-56
2021/10/30 10:36:22;;;;;;;10.68;3.75;;;;;;;10.45;100.00;97455.75;5015298;28;20554;-56
2021/10/30 10:39:31;;;;;;;0.63;0.32;;;;;;;10.44;100.00;97461.84;5014974;28;20101;-56
2021/10/30 10:42:36;;;;;;;0.30;0.22;;;;;;;10.39;100.00;97471.81;5015422;28;20073;-56
2021/10/30 10:45:48;;;;;;;4.57;0.85;;;;;;;10.38;100.00;97473.06;5015369;28;20092;-56
2021/10/30 10:48:51;;;;;;;0.38;0.38;;;;;;;10.53;100.00;97490.00;5015470;28;20044;-56
2021/10/30 10:52:14;;;;;;;1.10;0.85;;;;;;;10.51;100.00;97497.38;5015193;28;20052;-56
2021/10/30 10:55:17;;;;;;;3.63;0.70;;;;;;;10.57;100.00;97503.59;5015312;28;20040;-56
2021/10/30 10:58:20;;;;;;;9.02;1.55;;;;;;;10.66;100.00;97506.72;5014856;28;20053;-56
2021/10/30 11:01:23;;;;;;;0.50;0.40;;;;;;;10.71;100.00;97507.91;5014988;28;20095;-56
2021/10/30 11:04:26;;;;;;;1.65;0.43;;;;;;;10.68;100.00;97506.94;5014873;28;20121;-56
2021/10/30 11:07:29;;;;;;;3.67;1.08;;;;;;;10.59;100.00;97510.13;5014993;28;20044;-55
2021/10/30 11:10:39;;;;;;;2.90;0.43;;;;;;;10.65;100.00;97505.22;4994988;28;20065;-55
2021/10/30 11:13:57;;;;;;;0.20;0.20;;;;;;;10.60;100.00;97517.22;4994908;28;20092;-55
2021/10/30 11:17:01;;;;;;;4.10;1.02;;;;;;;10.60;100.00;97520.00;4994930;28;20044;-55
2021/10/30 11:20:19;;;;;;;1.08;0.32;;;;;;;10.67;100.00;97518.63;5012896;28;20108;-54
2021/10/30 11:23:28;;;;;;;1.10;0.55;;;;;;;10.72;100.00;97536.50;5014328;28;20121;-54
2021/10/30 11:26:35;;;;;;;0.38;0.15;;;;;;;10.85;100.00;97525.41;5014308;28;20053;-54
2021/10/30 11:29:50;;;;;;;1.17;0.40;;;;;;;10.90;100.00;97524.53;5014091;28;20564;-54
2021/10/30 11:32:53;;;;;;;0.43;0.30;;;;;;;11.03;100.00;97533.66;5014198;28;20057;-54
2021/10/30 11:35:57;;;;;;;0.43;0.43;;;;;;;11.00;100.00;97533.97;5013904;28;20136;-54
2021/10/30 11:39:01;;;;;;;2.65;0.13;;;;;;;11.03;100.00;97532.88;5014121;28;20096;-54
2021/10/30 11:42:05;;;;;;;0.10;0.10;;;;;;;11.00;100.00;97534.69;5032802;28;20460;-54
2021/10/30 11:45:08;;;;;;;2.08;0.28;;;;;;;11.00;100.00;97533.97;5032706;28;20095;-54
2021/10/30 11:48:11;;;;;;;0.10;0.10;;;;;;;10.97;100.00;97541.34;5033397;28;20103;-54
2021/10/30 11:51:19;;;;;;;0.10;0.10;;;;;;;11.04;100.00;97534.41;5033028;28;20052;-54
2021/10/30 11:54:23;;;;;;;0.20;0.20;;;;;;;11.32;100.00;97542.97;5033442;28;20556;-54
2021/10/30 11:57:26;;;;;;;0.10;0.10;;;;;;;11.50;100.00;97541.34;5033587;28;20048;-54
2021/10/30 12:00:29;;;;;;;0.20;0.17;;;;;;;11.58;100.00;97542.94;5032380;28;20109;-54
2021/10/30 12:03:35;;;;;;;0.20;0.10;;;;;;;11.74;100.00;97541.88;5033833;28;20052;-54
2021/10/30 12:06:43;;;;;;;0.20;0.20;;;;;;;11.84;100.00;97542.94;5033347;28;20076;-54
2021/10/30 12:09:47;;;;;;;0.10;0.10;;;;;;;11.72;100.00;97541.66;5032561;28;20099;-54
2021/10/30 12:12:51;;;;;;;0.17;0.17;;;;;;;11.47;100.00;97548.00;5033380;28;20052;-54
2021/10/30 12:15:54;;;;;;;0.10;0.10;;;;;;;11.23;100.00;97552.50;5033224;28;20056;-53
2021/10/30 12:19:04;;;;;;;0.20;0.10;;;;;;;10.98;100.00;97547.69;5042448;28;20052;-54
2021/10/30 12:22:18;;;;;;;0.40;0.28;;;;;;;10.85;100.00;97561.59;5053143;28;20110;-53
2021/10/30 12:25:27;;;;;;;0.15;0.15;;;;;;;10.77;100.00;97564.25;5053132;28;20080;-54
2021/10/30 12:28:35;;;;;;;0.10;0.10;;;;;;;10.83;100.00;97561.38;5052929;28;20093;-54
2021/10/30 12:31:58;;;;;;;0.30;0.30;;;;;;;10.87;100.00;97559.75;5053119;28;20052;-54
2021/10/30 12:35:24;;;;;;;0.20;0.20;;;;;;;10.95;100.00;97565.44;5041762;28;20047;-53
2021/10/30 12:38:37;;;;;;;0.22;0.22;;;;;;;11.22;100.00;97562.16;5053211;28;20079;-54
2021/10/30 12:41:44;;;;;;;0.13;0.10;;;;;;;11.43;100.00;97570.63;5053021;28;20064;-53
2021/10/30 12:44:50;;;;;;;0.75;0.75;;;;;;;11.53;100.00;97568.91;5052867;28;20114;-53
2021/10/30 12:48:12;;;;;;;0.50;0.17;;;;;;;11.36;100.00;97572.03;5052917;28;20111;-53
2021/10/30 12:51:18;;;;;;;0.98;0.45;;;;;;;11.18;100.00;97580.47;5052578;28;20062;-53
2021/10/30 12:54:25;;;;;;;1.63;0.45;;;;;;;10.96;100.00;97578.09;5053205;28;20563;-54
2021/10/30 12:57:29;;;;;;;1.30;0.30;;;;;;;10.81;100.00;97580.63;5052730;28;20099;-53
2021/10/30 13:00:38;;;;;;;0.65;0.30;;;;;;;10.71;100.00;97580.28;5051996;28;20546;-54
2021/10/30 13:03:42;;;;;;;0.95;0.30;;;;;;;10.65;100.00;97594.28;5051455;28;20083;-53
2021/10/30 13:06:45;;;;;;;3.58;0.40;;;;;;;10.61;100.00;97587.56;5051643;28;20075;-50
2021/10/30 13:10:00;;;;;;;0.25;0.25;;;;;;;10.56;100.00;97591.16;5033987;28;20107;-51
2021/10/30 13:13:03;;;;;;;1.58;0.82;;;;;;;10.49;100.00;97600.88;5031722;28;20125;-50
2021/10/30 13:16:06;;;;;;;0.10;0.10;;;;;;;10.46;100.00;97603.97;5031598;28;20063;-51
2021/10/30 13:19:09;;;;;;;0.25;0.25;;;;;;;10.33;100.00;97618.56;5031771;28;20092;-52
2021/10/30 13:22:12;;;;;;;1.15;0.20;;;;;;;10.21;100.00;97617.25;5032303;28;20049;-52
2021/10/30 13:25:14;;;;;;;0.80;0.30;;;;;;;10.16;100.00;97631.97;5032662;28;20040;-52
2021/10/30 13:28:17;;;;;;;0.10;0.10;;;;;;;10.22;100.00;97631.91;5032783;28;20052;-52
2021/10/30 13:31:21;;;;;;;0.90;0.40;;;;;;;10.38;100.00;97640.00;5032776;28;20043;-52
2021/10/30 13:34:24;;;;;;;2.22;0.35;;;;;;;10.68;100.00;97642.59;5032412;28;20068;-56
2021/10/30 13:37:27;;;;;;;0.20;0.20;;;;;;;10.84;100.00;97643.59;5032486;28;20052;-54
2021/10/30 13:40:31;;;;;;;0.95;0.20;;;;;;;10.96;100.00;97636.59;5032563;28;20063;-55
2021/10/30 13:43:35;;;;;;;0.40;0.28;;;;;;;11.03;100.00;97644.28;5031795;28;20048;-58
2021/10/30 13:46:38;;;;;;;0.65;0.10;;;;;;;11.20;100.00;97645.50;5032286;28;20453;-58
2021/10/30 13:49:41;;;;;;;1.63;0.30;;;;;;;11.27;100.00;97646.91;5032164;28;20121;-56
2021/10/30 13:52:44;;;;;;;0.20;0.10;;;;;;;11.34;100.00;97637.94;5032362;28;20112;-57
2021/10/30 13:55:47;;;;;;;0.10;0.10;;;;;;;11.38;100.00;97646.72;5032525;28;20059;-59
2021/10/30 13:58:51;;;;;;;0.10;0.10;;;;;;;11.38;100.00;97643.94;5032320;28;20132;-59
2021/10/30 14:01:54;;;;;;;0.30;0.15;;;;;;;11.50;100.00;97647.28;5033538;28;20048;-59
2021/10/30 14:04:56;;;;;;;0.10;0.10;;;;;;;11.53;100.00;97657.34;5036148;28;20052;-61
2021/10/30 14:07:59;;;;;;;0.28;0.10;;;;;;;11.39;100.00;97651.03;5035992;28;20099;-58
2021/10/30 14:11:03;;;;;;;0.52;0.52;;;;;;;11.37;100.00;97650.78;5036183;28;20040;-61
2021/10/30 14:14:06;;;;;;;6.15;0.70;;;;;;;11.44;100.00;97655.72;5035981;28;20036;-60
2021/10/30 14:17:10;;;;;;;0.20;0.20;;;;;;;11.67;100.00;97661.66;5035567;28;20146;-57
2021/10/30 14:20:13;;;;;;;0.10;0.05;;;;;;;11.95;100.00;97659.81;5034555;28;20060;-59
2021/10/30 14:23:16;;;;;;;0.55;0.55;;;;;;;12.13;100.00;97664.53;5035605;28;20489;-59